sensor_id;sensor_type;location;lat;lon;timestamp;P1;durP1;ratioP1;P2;durP2;ratioP2
17199;SDS011;8716;52.268;20.968;2022-09-24T00:02:03;4.87;;;4.17;;
17199;SDS011;8716;52.268;20.968;2022-09-24T00:04:31;4.23;;;3.97;;
17199;SDS011;8716;52.268;20.968;2022-09-24T00:07:00;8.83;;;7.50;;
17199;SDS011;8716;52.268;20.968;2022-09-24T00:09:29;6.73;;;6.33;;
17199;SDS011;8716;52.268;20.968;2022-09-24T00:11:57;4.63;;;4.33;;
17199;SDS011;8716;52.268;20.968;2022-09-24T00:14:26;5.23;;;4.93;;
17199;SDS011;8716;52.268;20.968;2022-09-24T00:16:54;4.37;;;3.30;;
17199;SDS011;8716;52.268;20.968;2022-09-24T00:19:22;3.80;;;3.60;;
17199;SDS011;8716;52.268;20.968;2022-09-24T00:21:50;7.10;;;5.17;;
17199;SDS011;8716;52.268;20.968;2022-09-24T00:24:18;7.80;;;5.90;;
17199;SDS011;8716;52.268;20.968;2022-09-24T00:27:02;9.40;;;4.53;;
17199;SDS011;8716;52.268;20.968;2022-09-24T00:29:32;5.23;;;4.93;;
17199;SDS011;8716;52.268;20.968;2022-09-24T00:32:01;3.87;;;3.67;;
17199;SDS011;8716;52.268;20.968;2022-09-24T00:34:30;5.00;;;4.70;;
17199;SDS011;8716;52.268;20.968;2022-09-24T00:36:58;5.20;;;4.90;;
17199;SDS011;8716;52.268;20.968;2022-09-24T00:39:26;6.97;;;6.57;;
17199;SDS011;8716;52.268;20.968;2022-09-24T00:41:54;3.87;;;3.67;;
17199;SDS011;8716;52.268;20.968;2022-09-24T00:44:42;5.57;;;4.93;;
17199;SDS011;8716;52.268;20.968;2022-09-24T00:47:22;4.73;;;4.10;;
17199;SDS011;8716;52.268;20.968;2022-09-24T00:49:57;4.67;;;4.37;;
17199;SDS011;8716;52.268;20.968;2022-09-24T00:52:42;5.30;;;5.00;;
17199;SDS011;8716;52.268;20.968;2022-09-24T00:55:14;5.03;;;4.70;;
17199;SDS011;8716;52.268;20.968;2022-09-24T00:57:45;6.10;;;4.60;;
17199;SDS011;8716;52.268;20.968;2022-09-24T01:00:16;9.83;;;4.20;;
17199;SDS011;8716;52.268;20.968;2022-09-24T01:02:45;5.33;;;4.20;;
17199;SDS011;8716;52.268;20.968;2022-09-24T01:05:15;6.23;;;5.90;;
17199;SDS011;8716;52.268;20.968;2022-09-24T01:07:44;3.97;;;3.77;;
17199;SDS011;8716;52.268;20.968;2022-09-24T01:10:14;7.33;;;6.93;;
17199;SDS011;8716;52.268;20.968;2022-09-24T01:13:06;4.27;;;4.00;;
17199;SDS011;8716;52.268;20.968;2022-09-24T01:15:45;6.00;;;5.70;;
17199;SDS011;8716;52.268;20.968;2022-09-24T01:18:21;5.77;;;5.17;;
17199;SDS011;8716;52.268;20.968;2022-09-24T01:23:55;4.37;;;3.60;;
17199;SDS011;8716;52.268;20.968;2022-09-24T01:26:40;5.83;;;4.63;;
17199;SDS011;8716;52.268;20.968;2022-09-24T01:29:38;8.73;;;8.23;;
17199;SDS011;8716;52.268;20.968;2022-09-24T01:32:14;5.70;;;5.40;;
17199;SDS011;8716;52.268;20.968;2022-09-24T01:34:46;6.17;;;5.83;;
17199;SDS011;8716;52.268;20.968;2022-09-24T01:37:20;5.80;;;5.53;;
17199;SDS011;8716;52.268;20.968;2022-09-24T01:39:51;4.80;;;4.20;;
17199;SDS011;8716;52.268;20.968;2022-09-24T01:42:21;3.70;;;3.50;;
17199;SDS011;8716;52.268;20.968;2022-09-24T01:44:53;6.87;;;6.47;;
17199;SDS011;8716;52.268;20.968;2022-09-24T01:47:25;6.67;;;6.30;;
17199;SDS011;8716;52.268;20.968;2022-09-24T01:50:00;6.83;;;6.23;;
17199;SDS011;8716;52.268;20.968;2022-09-24T01:52:30;6.60;;;6.20;;
17199;SDS011;8716;52.268;20.968;2022-09-24T01:55:05;8.43;;;7.97;;
17199;SDS011;8716;52.268;20.968;2022-09-24T01:57:37;6.67;;;6.27;;
17199;SDS011;8716;52.268;20.968;2022-09-24T02:00:12;8.33;;;7.90;;
17199;SDS011;8716;52.268;20.968;2022-09-24T02:02:42;5.03;;;4.73;;
17199;SDS011;8716;52.268;20.968;2022-09-24T02:05:15;6.60;;;6.00;;
17199;SDS011;8716;52.268;20.968;2022-09-24T02:07:51;8.30;;;7.87;;
17199;SDS011;8716;52.268;20.968;2022-09-24T02:10:24;7.40;;;7.00;;
17199;SDS011;8716;52.268;20.968;2022-09-24T02:12:57;7.10;;;6.70;;
17199;SDS011;8716;52.268;20.968;2022-09-24T02:15:31;5.80;;;5.50;;
17199;SDS011;8716;52.268;20.968;2022-09-24T02:18:04;4.73;;;4.43;;
17199;SDS011;8716;52.268;20.968;2022-09-24T02:20:35;5.40;;;5.10;;
17199;SDS011;8716;52.268;20.968;2022-09-24T02:23:06;5.33;;;5.03;;
17199;SDS011;8716;52.268;20.968;2022-09-24T02:25:37;7.07;;;6.00;;
17199;SDS011;8716;52.268;20.968;2022-09-24T02:28:09;6.97;;;4.00;;
17199;SDS011;8716;52.268;20.968;2022-09-24T02:30:39;5.20;;;4.90;;
17199;SDS011;8716;52.268;20.968;2022-09-24T02:33:12;5.90;;;5.60;;
17199;SDS011;8716;52.268;20.968;2022-09-24T02:35:59;5.80;;;5.50;;
17199;SDS011;8716;52.268;20.968;2022-09-24T02:38:28;5.20;;;4.87;;
17199;SDS011;8716;52.268;20.968;2022-09-24T02:40:56;4.80;;;4.50;;
17199;SDS011;8716;52.268;20.968;2022-09-24T02:43:25;6.90;;;5.70;;
17199;SDS011;8716;52.268;20.968;2022-09-24T02:45:54;8.10;;;4.90;;
17199;SDS011;8716;52.268;20.968;2022-09-24T02:48:22;7.60;;;6.57;;
17199;SDS011;8716;52.268;20.968;2022-09-24T02:50:51;6.57;;;6.17;;
17199;SDS011;8716;52.268;20.968;2022-09-24T02:53:19;6.63;;;6.23;;
17199;SDS011;8716;52.268;20.968;2022-09-24T02:55:49;6.70;;;6.30;;
17199;SDS011;8716;52.268;20.968;2022-09-24T02:58:17;7.93;;;7.53;;
17199;SDS011;8716;52.268;20.968;2022-09-24T03:00:46;5.43;;;5.00;;
17199;SDS011;8716;52.268;20.968;2022-09-24T03:03:15;10.70;;;7.43;;
17199;SDS011;8716;52.268;20.968;2022-09-24T03:05:45;9.10;;;7.83;;
17199;SDS011;8716;52.268;20.968;2022-09-24T03:08:14;7.77;;;7.37;;
17199;SDS011;8716;52.268;20.968;2022-09-24T03:10:42;7.00;;;6.60;;
17199;SDS011;8716;52.268;20.968;2022-09-24T03:13:10;6.03;;;5.73;;
17199;SDS011;8716;52.268;20.968;2022-09-24T03:15:38;10.80;;;7.60;;
17199;SDS011;8716;52.268;20.968;2022-09-24T03:18:06;7.20;;;6.80;;
17199;SDS011;8716;52.268;20.968;2022-09-24T03:20:36;5.37;;;5.07;;
17199;SDS011;8716;52.268;20.968;2022-09-24T03:23:06;6.50;;;6.10;;
17199;SDS011;8716;52.268;20.968;2022-09-24T03:25:34;6.73;;;6.33;;
17199;SDS011;8716;52.268;20.968;2022-09-24T03:28:02;8.13;;;7.73;;
17199;SDS011;8716;52.268;20.968;2022-09-24T03:30:30;9.80;;;7.37;;
17199;SDS011;8716;52.268;20.968;2022-09-24T03:33:16;6.13;;;5.80;;
17199;SDS011;8716;52.268;20.968;2022-09-24T03:35:45;8.30;;;7.90;;
17199;SDS011;8716;52.268;20.968;2022-09-24T03:38:13;7.77;;;7.37;;
17199;SDS011;8716;52.268;20.968;2022-09-24T03:40:41;8.67;;;8.17;;
17199;SDS011;8716;52.268;20.968;2022-09-24T03:43:09;7.10;;;6.70;;
17199;SDS011;8716;52.268;20.968;2022-09-24T03:45:37;8.17;;;7.50;;
17199;SDS011;8716;52.268;20.968;2022-09-24T03:48:05;12.33;;;8.93;;
17199;SDS011;8716;52.268;20.968;2022-09-24T03:50:34;9.97;;;9.03;;
17199;SDS011;8716;52.268;20.968;2022-09-24T03:53:04;5.67;;;5.37;;
17199;SDS011;8716;52.268;20.968;2022-09-24T03:55:32;8.30;;;7.90;;
17199;SDS011;8716;52.268;20.968;2022-09-24T03:58:00;9.90;;;7.93;;
17199;SDS011;8716;52.268;20.968;2022-09-24T04:00:29;7.40;;;7.10;;
17199;SDS011;8716;52.268;20.968;2022-09-24T04:02:57;7.37;;;6.97;;
17199;SDS011;8716;52.268;20.968;2022-09-24T04:05:25;7.87;;;6.27;;
17199;SDS011;8716;52.268;20.968;2022-09-24T04:07:55;7.40;;;7.00;;
17199;SDS011;8716;52.268;20.968;2022-09-24T04:10:26;6.33;;;4.90;;
17199;SDS011;8716;52.268;20.968;2022-09-24T04:12:57;11.27;;;10.67;;
17199;SDS011;8716;52.268;20.968;2022-09-24T04:15:25;6.70;;;6.30;;
17199;SDS011;8716;52.268;20.968;2022-09-24T04:17:54;9.20;;;8.00;;
17199;SDS011;8716;52.268;20.968;2022-09-24T04:20:25;6.07;;;5.77;;
17199;SDS011;8716;52.268;20.968;2022-09-24T04:22:55;7.83;;;6.10;;
17199;SDS011;8716;52.268;20.968;2022-09-24T04:25:25;6.70;;;6.30;;
17199;SDS011;8716;52.268;20.968;2022-09-24T04:27:57;11.53;;;10.93;;
17199;SDS011;8716;52.268;20.968;2022-09-24T04:30:27;6.80;;;6.40;;
17199;SDS011;8716;52.268;20.968;2022-09-24T04:32:56;10.83;;;7.33;;
17199;SDS011;8716;52.268;20.968;2022-09-24T04:35:26;5.60;;;5.30;;
17199;SDS011;8716;52.268;20.968;2022-09-24T04:37:56;5.50;;;4.90;;
17199;SDS011;8716;52.268;20.968;2022-09-24T04:40:25;6.00;;;5.70;;
17199;SDS011;8716;52.268;20.968;2022-09-24T04:42:56;6.93;;;6.53;;
17199;SDS011;8716;52.268;20.968;2022-09-24T04:45:24;13.67;;;6.87;;
17199;SDS011;8716;52.268;20.968;2022-09-24T04:47:52;6.80;;;5.00;;
17199;SDS011;8716;52.268;20.968;2022-09-24T04:50:23;6.27;;;5.93;;
17199;SDS011;8716;52.268;20.968;2022-09-24T04:52:55;5.77;;;5.47;;
17199;SDS011;8716;52.268;20.968;2022-09-24T04:55:24;6.27;;;5.93;;
17199;SDS011;8716;52.268;20.968;2022-09-24T04:57:55;7.00;;;6.60;;
17199;SDS011;8716;52.268;20.968;2022-09-24T05:00:24;5.93;;;5.63;;
17199;SDS011;8716;52.268;20.968;2022-09-24T05:02:55;5.80;;;5.50;;
17199;SDS011;8716;52.268;20.968;2022-09-24T05:05:24;5.87;;;5.57;;
17199;SDS011;8716;52.268;20.968;2022-09-24T05:07:53;5.73;;;5.43;;
17199;SDS011;8716;52.268;20.968;2022-09-24T05:10:22;8.23;;;4.70;;
17199;SDS011;8716;52.268;20.968;2022-09-24T05:12:50;8.37;;;7.93;;
17199;SDS011;8716;52.268;20.968;2022-09-24T05:15:20;6.47;;;6.07;;
17199;SDS011;8716;52.268;20.968;2022-09-24T05:17:48;9.23;;;6.63;;
17199;SDS011;8716;52.268;20.968;2022-09-24T05:20:16;5.70;;;5.40;;
17199;SDS011;8716;52.268;20.968;2022-09-24T05:22:45;8.70;;;8.20;;
17199;SDS011;8716;52.268;20.968;2022-09-24T05:25:16;7.80;;;7.43;;
17199;SDS011;8716;52.268;20.968;2022-09-24T05:27:46;6.00;;;5.70;;
17199;SDS011;8716;52.268;20.968;2022-09-24T05:30:14;10.03;;;9.53;;
17199;SDS011;8716;52.268;20.968;2022-09-24T05:32:45;6.97;;;6.57;;
17199;SDS011;8716;52.268;20.968;2022-09-24T05:35:17;10.37;;;9.67;;
17199;SDS011;8716;52.268;20.968;2022-09-24T05:37:45;8.07;;;7.60;;
17199;SDS011;8716;52.268;20.968;2022-09-24T05:40:15;10.23;;;7.93;;
17199;SDS011;8716;52.268;20.968;2022-09-24T05:43:01;10.80;;;10.20;;
17199;SDS011;8716;52.268;20.968;2022-09-24T05:45:30;5.20;;;4.90;;
17199;SDS011;8716;52.268;20.968;2022-09-24T05:48:00;7.77;;;7.37;;
17199;SDS011;8716;52.268;20.968;2022-09-24T05:50:28;12.80;;;7.40;;
17199;SDS011;8716;52.268;20.968;2022-09-24T05:52:58;6.70;;;6.30;;
17199;SDS011;8716;52.268;20.968;2022-09-24T05:55:27;5.03;;;4.73;;
17199;SDS011;8716;52.268;20.968;2022-09-24T05:58:01;8.73;;;8.23;;
17199;SDS011;8716;52.268;20.968;2022-09-24T06:00:30;6.80;;;6.40;;
17199;SDS011;8716;52.268;20.968;2022-09-24T06:03:03;6.80;;;6.40;;
17199;SDS011;8716;52.268;20.968;2022-09-24T06:05:33;3.77;;;3.57;;
17199;SDS011;8716;52.268;20.968;2022-09-24T06:08:01;4.67;;;4.37;;
17199;SDS011;8716;52.268;20.968;2022-09-24T06:10:29;5.80;;;5.50;;
17199;SDS011;8716;52.268;20.968;2022-09-24T06:12:57;5.30;;;5.00;;
17199;SDS011;8716;52.268;20.968;2022-09-24T06:15:26;5.40;;;5.10;;
17199;SDS011;8716;52.268;20.968;2022-09-24T06:17:54;6.07;;;5.73;;
17199;SDS011;8716;52.268;20.968;2022-09-24T06:20:23;7.47;;;7.07;;
17199;SDS011;8716;52.268;20.968;2022-09-24T06:22:53;6.70;;;4.23;;
17199;SDS011;8716;52.268;20.968;2022-09-24T06:25:22;12.03;;;5.93;;
17199;SDS011;8716;52.268;20.968;2022-09-24T06:27:54;5.63;;;5.33;;
17199;SDS011;8716;52.268;20.968;2022-09-24T06:30:26;4.17;;;3.93;;
17199;SDS011;8716;52.268;20.968;2022-09-24T06:32:59;8.90;;;8.40;;
17199;SDS011;8716;52.268;20.968;2022-09-24T06:35:32;4.97;;;4.67;;
17199;SDS011;8716;52.268;20.968;2022-09-24T06:38:00;6.47;;;6.07;;
17199;SDS011;8716;52.268;20.968;2022-09-24T06:40:29;6.90;;;6.50;;
17199;SDS011;8716;52.268;20.968;2022-09-24T06:43:02;5.37;;;4.60;;
17199;SDS011;8716;52.268;20.968;2022-09-24T06:45:32;5.30;;;5.00;;
17199;SDS011;8716;52.268;20.968;2022-09-24T06:48:00;4.50;;;4.18;;
17199;SDS011;8716;52.268;20.968;2022-09-24T06:50:32;6.63;;;5.50;;
17199;SDS011;8716;52.268;20.968;2022-09-24T06:53:03;12.27;;;5.50;;
17199;SDS011;8716;52.268;20.968;2022-09-24T06:55:32;3.93;;;3.73;;
17199;SDS011;8716;52.268;20.968;2022-09-24T06:58:02;7.70;;;7.30;;
17199;SDS011;8716;52.268;20.968;2022-09-24T07:00:33;7.23;;;6.23;;
17199;SDS011;8716;52.268;20.968;2022-09-24T07:03:02;6.23;;;5.90;;
17199;SDS011;8716;52.268;20.968;2022-09-24T07:05:33;9.33;;;5.70;;
17199;SDS011;8716;52.268;20.968;2022-09-24T07:08:08;7.43;;;6.83;;
17199;SDS011;8716;52.268;20.968;2022-09-24T07:10:36;5.30;;;5.00;;
17199;SDS011;8716;52.268;20.968;2022-09-24T07:13:08;4.63;;;4.33;;
17199;SDS011;8716;52.268;20.968;2022-09-24T07:15:36;4.97;;;4.23;;
17199;SDS011;8716;52.268;20.968;2022-09-24T07:18:04;6.50;;;6.13;;
17199;SDS011;8716;52.268;20.968;2022-09-24T07:20:33;8.60;;;8.10;;
17199;SDS011;8716;52.268;20.968;2022-09-24T07:23:02;4.40;;;4.10;;
17199;SDS011;8716;52.268;20.968;2022-09-24T07:25:33;4.57;;;4.30;;
17199;SDS011;8716;52.268;20.968;2022-09-24T07:28:02;5.13;;;4.83;;
17199;SDS011;8716;52.268;20.968;2022-09-24T07:30:32;6.30;;;5.17;;
17199;SDS011;8716;52.268;20.968;2022-09-24T07:33:02;8.83;;;8.33;;
17199;SDS011;8716;52.268;20.968;2022-09-24T07:35:30;4.80;;;4.50;;
17199;SDS011;8716;52.268;20.968;2022-09-24T07:38:03;5.37;;;5.07;;
17199;SDS011;8716;52.268;20.968;2022-09-24T07:40:32;7.77;;;7.37;;
17199;SDS011;8716;52.268;20.968;2022-09-24T07:43:01;6.77;;;6.37;;
17199;SDS011;8716;52.268;20.968;2022-09-24T07:45:29;4.67;;;4.37;;
17199;SDS011;8716;52.268;20.968;2022-09-24T07:47:58;4.40;;;4.10;;
17199;SDS011;8716;52.268;20.968;2022-09-24T07:50:28;6.70;;;6.30;;
17199;SDS011;8716;52.268;20.968;2022-09-24T07:52:58;5.13;;;4.83;;
17199;SDS011;8716;52.268;20.968;2022-09-24T07:55:28;6.33;;;5.97;;
17199;SDS011;8716;52.268;20.968;2022-09-24T07:57:56;5.13;;;4.83;;
17199;SDS011;8716;52.268;20.968;2022-09-24T08:00:24;5.93;;;5.63;;
17199;SDS011;8716;52.268;20.968;2022-09-24T08:02:52;4.63;;;4.33;;
17199;SDS011;8716;52.268;20.968;2022-09-24T08:05:22;5.10;;;4.80;;
17199;SDS011;8716;52.268;20.968;2022-09-24T08:07:50;5.80;;;5.13;;
17199;SDS011;8716;52.268;20.968;2022-09-24T08:10:19;6.03;;;4.30;;
17199;SDS011;8716;52.268;20.968;2022-09-24T08:12:48;3.90;;;3.70;;
17199;SDS011;8716;52.268;20.968;2022-09-24T08:15:17;6.00;;;5.70;;
17199;SDS011;8716;52.268;20.968;2022-09-24T08:17:45;6.17;;;5.30;;
17199;SDS011;8716;52.268;20.968;2022-09-24T08:20:13;4.47;;;3.97;;
17199;SDS011;8716;52.268;20.968;2022-09-24T08:22:41;4.73;;;3.67;;
17199;SDS011;8716;52.268;20.968;2022-09-24T08:25:09;4.73;;;4.43;;
17199;SDS011;8716;52.268;20.968;2022-09-24T08:27:37;5.20;;;4.90;;
17199;SDS011;8716;52.268;20.968;2022-09-24T08:30:08;8.80;;;8.30;;
17199;SDS011;8716;52.268;20.968;2022-09-24T08:32:37;16.43;;;8.73;;
17199;SDS011;8716;52.268;20.968;2022-09-24T08:35:05;7.27;;;4.80;;
17199;SDS011;8716;52.268;20.968;2022-09-24T08:37:34;7.57;;;7.17;;
17199;SDS011;8716;52.268;20.968;2022-09-24T08:40:03;6.10;;;4.90;;
17199;SDS011;8716;52.268;20.968;2022-09-24T08:42:34;5.17;;;4.87;;
17199;SDS011;8716;52.268;20.968;2022-09-24T08:45:13;5.10;;;4.80;;
17199;SDS011;8716;52.268;20.968;2022-09-24T08:48:02;6.73;;;6.33;;
17199;SDS011;8716;52.268;20.968;2022-09-24T08:50:36;7.87;;;6.47;;
17199;SDS011;8716;52.268;20.968;2022-09-24T08:53:14;5.17;;;4.87;;
17199;SDS011;8716;52.268;20.968;2022-09-24T08:55:47;6.10;;;5.80;;
17199;SDS011;8716;52.268;20.968;2022-09-24T08:58:25;5.00;;;4.70;;
17199;SDS011;8716;52.268;20.968;2022-09-24T09:01:03;6.70;;;5.73;;
17199;SDS011;8716;52.268;20.968;2022-09-24T09:03:40;4.80;;;4.50;;
17199;SDS011;8716;52.268;20.968;2022-09-24T09:06:15;5.00;;;4.77;;
17199;SDS011;8716;52.268;20.968;2022-09-24T09:09:08;6.40;;;6.03;;
17199;SDS011;8716;52.268;20.968;2022-09-24T09:11:39;4.50;;;4.27;;
17199;SDS011;8716;52.268;20.968;2022-09-24T09:14:13;4.03;;;3.80;;
17199;SDS011;8716;52.268;20.968;2022-09-24T09:16:48;6.37;;;5.57;;
17199;SDS011;8716;52.268;20.968;2022-09-24T09:19:19;4.33;;;4.07;;
17199;SDS011;8716;52.268;20.968;2022-09-24T09:21:54;3.87;;;3.40;;
17199;SDS011;8716;52.268;20.968;2022-09-24T09:24:27;3.73;;;3.53;;
17199;SDS011;8716;52.268;20.968;2022-09-24T09:27:04;4.97;;;4.67;;
17199;SDS011;8716;52.268;20.968;2022-09-24T09:29:40;6.77;;;6.37;;
17199;SDS011;8716;52.268;20.968;2022-09-24T09:32:12;4.77;;;4.47;;
17199;SDS011;8716;52.268;20.968;2022-09-24T09:34:52;3.63;;;3.43;;
17199;SDS011;8716;52.268;20.968;2022-09-24T09:37:28;3.70;;;3.50;;
17199;SDS011;8716;52.268;20.968;2022-09-24T09:40:08;4.40;;;4.10;;
17199;SDS011;8716;52.268;20.968;2022-09-24T09:42:59;5.00;;;4.70;;
17199;SDS011;8716;52.268;20.968;2022-09-24T09:45:33;4.07;;;3.83;;
17199;SDS011;8716;52.268;20.968;2022-09-24T09:48:06;4.50;;;4.20;;
17199;SDS011;8716;52.268;20.968;2022-09-24T09:50:38;4.93;;;4.60;;
17199;SDS011;8716;52.268;20.968;2022-09-24T09:53:16;3.43;;;3.23;;
17199;SDS011;8716;52.268;20.968;2022-09-24T09:55:50;4.43;;;4.13;;
17199;SDS011;8716;52.268;20.968;2022-09-24T09:58:21;4.57;;;4.27;;
17199;SDS011;8716;52.268;20.968;2022-09-24T10:00:51;4.60;;;4.30;;
17199;SDS011;8716;52.268;20.968;2022-09-24T10:03:30;4.00;;;3.80;;
17199;SDS011;8716;52.268;20.968;2022-09-24T10:06:01;3.53;;;3.33;;
17199;SDS011;8716;52.268;20.968;2022-09-24T10:08:31;3.60;;;3.40;;
17199;SDS011;8716;52.268;20.968;2022-09-24T10:11:00;3.80;;;3.60;;
17199;SDS011;8716;52.268;20.968;2022-09-24T10:13:29;5.13;;;4.83;;
17199;SDS011;8716;52.268;20.968;2022-09-24T10:15:58;3.20;;;3.00;;
17199;SDS011;8716;52.268;20.968;2022-09-24T10:18:30;3.73;;;3.53;;
17199;SDS011;8716;52.268;20.968;2022-09-24T10:21:02;6.00;;;4.10;;
17199;SDS011;8716;52.268;20.968;2022-09-24T10:23:35;4.00;;;3.80;;
17199;SDS011;8716;52.268;20.968;2022-09-24T10:26:06;4.67;;;4.40;;
17199;SDS011;8716;52.268;20.968;2022-09-24T10:28:38;3.10;;;2.90;;
17199;SDS011;8716;52.268;20.968;2022-09-24T10:31:29;3.40;;;3.20;;
17199;SDS011;8716;52.268;20.968;2022-09-24T10:34:03;2.97;;;2.77;;
17199;SDS011;8716;52.268;20.968;2022-09-24T10:36:48;3.77;;;3.57;;
17199;SDS011;8716;52.268;20.968;2022-09-24T10:39:19;5.17;;;3.30;;
17199;SDS011;8716;52.268;20.968;2022-09-24T10:41:49;4.60;;;4.30;;
17199;SDS011;8716;52.268;20.968;2022-09-24T10:44:19;4.30;;;4.00;;
17199;SDS011;8716;52.268;20.968;2022-09-24T10:46:50;2.93;;;2.73;;
17199;SDS011;8716;52.268;20.968;2022-09-24T10:49:37;3.83;;;2.60;;
17199;SDS011;8716;52.268;20.968;2022-09-24T10:52:17;3.80;;;3.27;;
17199;SDS011;8716;52.268;20.968;2022-09-24T10:55:00;3.00;;;2.80;;
17199;SDS011;8716;52.268;20.968;2022-09-24T10:57:42;3.30;;;3.10;;
17199;SDS011;8716;52.268;20.968;2022-09-24T11:00:19;3.77;;;3.43;;
17199;SDS011;8716;52.268;20.968;2022-09-24T11:02:59;4.60;;;4.30;;
17199;SDS011;8716;52.268;20.968;2022-09-24T11:05:51;4.63;;;4.33;;
17199;SDS011;8716;52.268;20.968;2022-09-24T11:08:23;3.57;;;3.37;;
17199;SDS011;8716;52.268;20.968;2022-09-24T11:11:05;3.57;;;3.37;;
17199;SDS011;8716;52.268;20.968;2022-09-24T11:13:43;3.17;;;2.97;;
17199;SDS011;8716;52.268;20.968;2022-09-24T11:16:27;3.73;;;3.53;;
17199;SDS011;8716;52.268;20.968;2022-09-24T11:19:14;4.80;;;4.50;;
17199;SDS011;8716;52.268;20.968;2022-09-24T11:22:02;3.90;;;3.27;;
17199;SDS011;8716;52.268;20.968;2022-09-24T11:24:44;5.10;;;4.80;;
17199;SDS011;8716;52.268;20.968;2022-09-24T11:27:32;4.00;;;3.80;;
17199;SDS011;8716;52.268;20.968;2022-09-24T11:30:12;5.67;;;3.70;;
17199;SDS011;8716;52.268;20.968;2022-09-24T11:32:46;4.43;;;4.13;;
17199;SDS011;8716;52.268;20.968;2022-09-24T11:35:34;5.27;;;4.97;;
17199;SDS011;8716;52.268;20.968;2022-09-24T11:38:21;3.67;;;3.47;;
17199;SDS011;8716;52.268;20.968;2022-09-24T11:41:01;4.27;;;4.00;;
17199;SDS011;8716;52.268;20.968;2022-09-24T11:46:55;3.80;;;3.60;;
17199;SDS011;8716;52.268;20.968;2022-09-24T11:49:44;3.07;;;2.87;;
17199;SDS011;8716;52.268;20.968;2022-09-24T11:52:23;3.33;;;3.13;;
17199;SDS011;8716;52.268;20.968;2022-09-24T11:55:01;3.13;;;2.93;;
17199;SDS011;8716;52.268;20.968;2022-09-24T11:57:38;2.80;;;2.60;;
17199;SDS011;8716;52.268;20.968;2022-09-24T12:00:11;2.30;;;2.10;;
17199;SDS011;8716;52.268;20.968;2022-09-24T12:02:44;2.87;;;2.67;;
17199;SDS011;8716;52.268;20.968;2022-09-24T12:05:19;3.20;;;2.30;;
17199;SDS011;8716;52.268;20.968;2022-09-24T12:07:54;3.57;;;3.37;;
17199;SDS011;8716;52.268;20.968;2022-09-24T12:10:30;10.10;;;3.43;;
17199;SDS011;8716;52.268;20.968;2022-09-24T12:13:09;3.27;;;3.07;;
17199;SDS011;8716;52.268;20.968;2022-09-24T12:15:47;2.60;;;2.40;;
17199;SDS011;8716;52.268;20.968;2022-09-24T12:18:20;2.97;;;2.77;;
17199;SDS011;8716;52.268;20.968;2022-09-24T12:20:52;3.47;;;3.27;;
17199;SDS011;8716;52.268;20.968;2022-09-24T12:23:24;3.30;;;3.10;;
17199;SDS011;8716;52.268;20.968;2022-09-24T12:25:58;3.70;;;3.50;;
17199;SDS011;8716;52.268;20.968;2022-09-24T12:28:34;3.20;;;3.00;;
17199;SDS011;8716;52.268;20.968;2022-09-24T12:31:28;3.43;;;3.10;;
17199;SDS011;8716;52.268;20.968;2022-09-24T12:34:24;3.43;;;2.70;;
17199;SDS011;8716;52.268;20.968;2022-09-24T12:36:58;3.47;;;2.70;;
17199;SDS011;8716;52.268;20.968;2022-09-24T12:39:34;3.10;;;2.90;;
17199;SDS011;8716;52.268;20.968;2022-09-24T12:42:08;2.67;;;2.47;;
17199;SDS011;8716;52.268;20.968;2022-09-24T12:44:40;2.57;;;2.37;;
17199;SDS011;8716;52.268;20.968;2022-09-24T12:47:15;2.73;;;2.47;;
17199;SDS011;8716;52.268;20.968;2022-09-24T12:49:47;2.70;;;2.50;;
17199;SDS011;8716;52.268;20.968;2022-09-24T12:52:22;2.60;;;2.40;;
17199;SDS011;8716;52.268;20.968;2022-09-24T12:54:55;2.67;;;2.47;;
17199;SDS011;8716;52.268;20.968;2022-09-24T12:57:30;3.20;;;2.53;;
17199;SDS011;8716;52.268;20.968;2022-09-24T13:00:31;3.23;;;3.03;;
17199;SDS011;8716;52.268;20.968;2022-09-24T13:03:00;2.90;;;2.63;;
17199;SDS011;8716;52.268;20.968;2022-09-24T13:05:31;2.97;;;2.77;;
17199;SDS011;8716;52.268;20.968;2022-09-24T13:08:02;3.97;;;3.77;;
17199;SDS011;8716;52.268;20.968;2022-09-24T13:10:53;3.30;;;3.10;;
17199;SDS011;8716;52.268;20.968;2022-09-24T13:13:24;2.47;;;2.27;;
17199;SDS011;8716;52.268;20.968;2022-09-24T13:15:58;3.57;;;3.37;;
17199;SDS011;8716;52.268;20.968;2022-09-24T13:18:29;3.13;;;2.93;;
17199;SDS011;8716;52.268;20.968;2022-09-24T13:21:01;3.47;;;3.27;;
17199;SDS011;8716;52.268;20.968;2022-09-24T13:23:41;2.53;;;2.33;;
17199;SDS011;8716;52.268;20.968;2022-09-24T13:26:11;2.73;;;2.53;;
17199;SDS011;8716;52.268;20.968;2022-09-24T13:28:56;3.13;;;3.00;;
17199;SDS011;8716;52.268;20.968;2022-09-24T13:31:32;2.70;;;2.50;;
17199;SDS011;8716;52.268;20.968;2022-09-24T13:34:17;2.43;;;2.30;;
17199;SDS011;8716;52.268;20.968;2022-09-24T13:36:51;2.77;;;2.57;;
17199;SDS011;8716;52.268;20.968;2022-09-24T13:39:26;4.20;;;3.37;;
17199;SDS011;8716;52.268;20.968;2022-09-24T13:42:01;2.97;;;2.77;;
17199;SDS011;8716;52.268;20.968;2022-09-24T13:44:35;3.20;;;3.00;;
17199;SDS011;8716;52.268;20.968;2022-09-24T13:47:10;2.93;;;2.80;;
17199;SDS011;8716;52.268;20.968;2022-09-24T13:49:42;2.87;;;2.60;;
17199;SDS011;8716;52.268;20.968;2022-09-24T13:52:13;2.77;;;2.57;;
17199;SDS011;8716;52.268;20.968;2022-09-24T13:54:52;2.77;;;2.57;;
17199;SDS011;8716;52.268;20.968;2022-09-24T13:57:26;3.77;;;3.57;;
17199;SDS011;8716;52.268;20.968;2022-09-24T14:00:11;4.03;;;3.67;;
17199;SDS011;8716;52.268;20.968;2022-09-24T14:02:42;3.10;;;2.90;;
17199;SDS011;8716;52.268;20.968;2022-09-24T14:05:18;3.13;;;2.93;;
17199;SDS011;8716;52.268;20.968;2022-09-24T14:07:52;3.80;;;3.60;;
17199;SDS011;8716;52.268;20.968;2022-09-24T14:10:22;3.77;;;3.57;;
17199;SDS011;8716;52.268;20.968;2022-09-24T14:12:58;3.47;;;3.27;;
17199;SDS011;8716;52.268;20.968;2022-09-24T14:15:28;4.47;;;3.83;;
17199;SDS011;8716;52.268;20.968;2022-09-24T14:17:56;2.90;;;2.70;;
17199;SDS011;8716;52.268;20.968;2022-09-24T14:20:25;2.60;;;2.40;;
17199;SDS011;8716;52.268;20.968;2022-09-24T14:22:58;2.93;;;2.73;;
17199;SDS011;8716;52.268;20.968;2022-09-24T14:25:27;2.57;;;2.37;;
17199;SDS011;8716;52.268;20.968;2022-09-24T14:27:57;2.97;;;2.77;;
17199;SDS011;8716;52.268;20.968;2022-09-24T14:30:32;4.97;;;3.00;;
17199;SDS011;8716;52.268;20.968;2022-09-24T14:33:04;3.03;;;2.83;;
17199;SDS011;8716;52.268;20.968;2022-09-24T14:35:35;2.83;;;2.63;;
17199;SDS011;8716;52.268;20.968;2022-09-24T14:38:05;3.10;;;2.87;;
17199;SDS011;8716;52.268;20.968;2022-09-24T14:40:38;4.00;;;3.80;;
17199;SDS011;8716;52.268;20.968;2022-09-24T14:43:13;2.97;;;2.83;;
17199;SDS011;8716;52.268;20.968;2022-09-24T14:45:45;4.47;;;4.17;;
17199;SDS011;8716;52.268;20.968;2022-09-24T14:48:17;7.37;;;3.70;;
17199;SDS011;8716;52.268;20.968;2022-09-24T14:50:50;2.97;;;2.77;;
17199;SDS011;8716;52.268;20.968;2022-09-24T14:53:19;3.50;;;3.30;;
17199;SDS011;8716;52.268;20.968;2022-09-24T14:55:50;3.23;;;2.97;;
17199;SDS011;8716;52.268;20.968;2022-09-24T14:58:22;3.17;;;2.97;;
17199;SDS011;8716;52.268;20.968;2022-09-24T15:00:54;3.20;;;3.00;;
17199;SDS011;8716;52.268;20.968;2022-09-24T15:03:26;3.87;;;3.67;;
17199;SDS011;8716;52.268;20.968;2022-09-24T15:06:05;3.40;;;3.20;;
17199;SDS011;8716;52.268;20.968;2022-09-24T15:08:44;4.33;;;4.07;;
17199;SDS011;8716;52.268;20.968;2022-09-24T15:11:19;4.47;;;4.17;;
17199;SDS011;8716;52.268;20.968;2022-09-24T15:13:57;5.20;;;2.90;;
17199;SDS011;8716;52.268;20.968;2022-09-24T15:16:31;2.67;;;2.47;;
17199;SDS011;8716;52.268;20.968;2022-09-24T15:19:10;3.03;;;2.87;;
17199;SDS011;8716;52.268;20.968;2022-09-24T15:21:45;3.87;;;3.67;;
17199;SDS011;8716;52.268;20.968;2022-09-24T15:24:17;4.57;;;2.97;;
17199;SDS011;8716;52.268;20.968;2022-09-24T15:26:47;2.70;;;2.50;;
17199;SDS011;8716;52.268;20.968;2022-09-24T15:29:25;2.73;;;2.53;;